createdAt,value
2018-11-02T00:00:25.262Z,7.60
2018-11-02T00:01:25.202Z,8.40
2018-11-02T00:02:25.226Z,8.40
2018-11-02T00:03:25.251Z,7.90
2018-11-02T00:04:25.280Z,7.70
2018-11-02T00:05:25.306Z,7.90
2018-11-02T00:06:25.514Z,7.10
2018-11-02T00:07:25.363Z,6.40
2018-11-02T00:08:25.389Z,5.70
2018-11-02T00:09:25.420Z,6.50
2018-11-02T00:10:25.446Z,4.50
2018-11-02T00:11:25.475Z,7.80
2018-11-02T00:12:25.564Z,8.00
2018-11-02T00:13:25.533Z,9.60
2018-11-02T00:14:25.557Z,10.60
2018-11-02T00:15:25.585Z,14.40
2018-11-02T00:16:25.612Z,8.30
2018-11-02T00:17:25.643Z,7.10
2018-11-02T00:18:25.668Z,12.00
2018-11-02T00:19:25.698Z,9.80
2018-11-02T00:20:25.725Z,17.20
2018-11-02T00:21:25.953Z,13.20
2018-11-02T00:22:25.784Z,16.80
2018-11-02T00:23:25.811Z,13.80
2018-11-02T00:24:25.836Z,11.70
2018-11-02T00:25:25.866Z,13.90
2018-11-02T00:26:25.895Z,8.40
2018-11-02T00:27:25.919Z,7.40
2018-11-02T00:28:25.946Z,8.00
2018-11-02T00:29:25.973Z,8.00
2018-11-02T00:30:26.002Z,6.50
2018-11-02T00:31:26.029Z,6.60
2018-11-02T00:32:26.057Z,7.10
2018-11-02T00:33:26.085Z,10.10
2018-11-02T00:34:26.114Z,13.40
2018-11-02T00:35:26.141Z,9.00
2018-11-02T00:36:26.169Z,7.80
2018-11-02T00:37:26.198Z,6.90
2018-11-02T00:38:26.225Z,8.20
2018-11-02T00:39:26.501Z,7.30
2018-11-02T00:40:26.279Z,6.40
2018-11-02T00:41:26.308Z,5.40
2018-11-02T00:42:26.335Z,6.50
2018-11-02T00:43:26.363Z,5.30
2018-11-02T00:44:26.390Z,4.90
2018-11-02T00:45:26.418Z,4.60
2018-11-02T00:46:26.445Z,5.10
2018-11-02T00:47:26.474Z,5.00
2018-11-02T00:48:26.502Z,5.20
2018-11-02T00:49:26.579Z,4.30
2018-11-02T00:50:26.557Z,4.30
2018-11-02T00:51:26.593Z,3.90
2018-11-02T00:52:26.612Z,3.80
2018-11-02T00:53:26.641Z,5.90
2018-11-02T00:54:26.667Z,24.60
2018-11-02T00:55:26.707Z,4.00
2018-11-02T00:56:26.721Z,5.00
2018-11-02T00:57:27.141Z,5.20
2018-11-02T00:58:26.778Z,12.50
2018-11-02T00:59:26.806Z,5.30
2018-11-02T01:00:26.832Z,6.20
2018-11-02T01:01:26.867Z,4.60
2018-11-02T01:02:26.890Z,7.80
2018-11-02T01:03:26.915Z,11.40
2018-11-02T01:04:26.941Z,7.30
2018-11-02T01:05:26.971Z,8.60
2018-11-02T01:06:26.998Z,4.20
2018-11-02T01:07:27.027Z,8.90
2018-11-02T01:08:27.056Z,4.20
2018-11-02T01:09:27.080Z,4.10
2018-11-02T01:10:27.107Z,4.70
2018-11-02T01:11:27.136Z,4.20
2018-11-02T01:12:27.161Z,4.40
2018-11-02T01:13:27.190Z,4.40
2018-11-02T01:14:27.218Z,5.30
2018-11-02T01:15:27.746Z,8.00
2018-11-02T01:16:27.284Z,5.70
2018-11-02T01:17:27.301Z,5.60
2018-11-02T01:18:27.345Z,6.00
2018-11-02T01:19:27.355Z,5.80
2018-11-02T01:20:27.382Z,5.90
2018-11-02T01:21:27.411Z,4.90
2018-11-02T01:22:27.440Z,7.90
2018-11-02T01:23:27.465Z,5.50
2018-11-02T01:24:27.491Z,7.20
2018-11-02T01:25:27.520Z,6.30
2018-11-02T01:26:27.547Z,5.60
2018-11-02T01:27:27.574Z,5.40
2018-11-02T01:28:27.601Z,6.50
2018-11-02T01:29:27.629Z,5.20
2018-11-02T01:30:27.656Z,5.50
2018-11-02T01:31:27.685Z,5.60
2018-11-02T01:32:27.710Z,5.40
2018-11-02T01:33:27.737Z,5.80
2018-11-02T01:34:27.766Z,5.30
2018-11-02T01:35:27.794Z,6.00
2018-11-02T01:36:27.820Z,5.00
2018-11-02T01:37:27.847Z,5.10
2018-11-02T01:38:27.876Z,7.90
2018-11-02T01:39:27.903Z,5.30
2018-11-02T01:40:27.929Z,5.40
2018-11-02T01:41:27.958Z,5.60
2018-11-02T01:42:27.985Z,6.00
2018-11-02T01:43:28.014Z,6.00
2018-11-02T01:44:28.038Z,7.50
2018-11-02T01:45:28.067Z,6.30
2018-11-02T01:46:28.095Z,9.30
2018-11-02T01:47:28.122Z,6.00
2018-11-02T01:48:28.148Z,5.80
2018-11-02T01:49:28.178Z,7.90
2018-11-02T01:50:28.204Z,9.40
2018-11-02T01:51:28.232Z,8.30
2018-11-02T01:52:28.260Z,9.10
2018-11-02T01:53:28.287Z,7.80
2018-11-02T01:54:28.313Z,5.60
2018-11-02T01:55:28.341Z,9.30
2018-11-02T01:56:28.367Z,19.60
2018-11-02T01:57:28.394Z,49.90
2018-11-02T01:58:28.422Z,18.30
2018-11-02T01:59:28.450Z,4.30
2018-11-02T02:00:28.476Z,4.20
2018-11-02T02:01:28.503Z,4.40
2018-11-02T02:02:28.535Z,5.30
2018-11-02T02:03:28.559Z,5.10
2018-11-02T02:04:28.586Z,5.30
2018-11-02T02:05:28.621Z,4.70
2018-11-02T02:06:28.641Z,8.40
2018-11-02T02:07:28.668Z,5.50
2018-11-02T02:08:28.693Z,6.70
2018-11-02T02:09:28.741Z,6.00
2018-11-02T02:10:28.748Z,7.60
2018-11-02T02:11:28.821Z,15.00
2018-11-02T02:12:28.801Z,24.40
2018-11-02T02:13:28.830Z,9.30
2018-11-02T02:14:28.861Z,30.20
2018-11-02T02:15:28.921Z,4.60
2018-11-02T02:16:28.911Z,12.90
2018-11-02T02:17:28.937Z,101.50
2018-11-02T02:18:28.965Z,99.90
2018-11-02T02:19:28.993Z,47.70
2018-11-02T02:20:29.029Z,40.30
2018-11-02T02:21:29.047Z,38.60
2018-11-02T02:22:29.077Z,56.50
2018-11-02T02:23:29.102Z,41.00
2018-11-02T02:24:29.131Z,36.70
2018-11-02T02:25:29.174Z,31.20
2018-11-02T02:26:29.192Z,20.80
2018-11-02T02:27:29.209Z,12.00
2018-11-02T02:28:29.235Z,21.10
2018-11-02T02:29:29.263Z,47.90
2018-11-02T02:30:29.289Z,37.50
2018-11-02T02:31:29.320Z,54.10
2018-11-02T02:32:29.343Z,37.70
2018-11-02T02:33:29.370Z,48.40
2018-11-02T02:34:29.400Z,23.40
2018-11-02T02:35:29.424Z,12.00
2018-11-02T02:36:29.451Z,8.10
2018-11-02T02:37:29.478Z,7.10
2018-11-02T02:38:29.505Z,6.90
2018-11-02T02:39:29.533Z,10.20
2018-11-02T02:40:29.559Z,14.20
2018-11-02T02:41:29.585Z,20.90
2018-11-02T02:42:29.612Z,31.60
2018-11-02T02:43:29.640Z,39.70
2018-11-02T02:44:29.667Z,116.40
2018-11-02T02:45:29.693Z,58.30
2018-11-02T02:46:29.720Z,24.40
2018-11-02T02:47:29.746Z,12.90
2018-11-02T02:48:29.776Z,16.80
2018-11-02T02:49:29.801Z,18.10
2018-11-02T02:50:29.826Z,17.00
2018-11-02T02:51:29.856Z,23.20
2018-11-02T02:52:29.880Z,11.60
2018-11-02T02:53:29.907Z,14.30
2018-11-02T02:54:29.933Z,32.90
2018-11-02T02:55:29.960Z,61.90
2018-11-02T02:56:29.986Z,49.10
2018-11-02T02:57:30.014Z,18.60
2018-11-02T02:58:30.080Z,48.70
2018-11-02T02:59:30.069Z,44.40
2018-11-02T03:00:30.113Z,38.70
2018-11-02T03:01:30.122Z,26.40
2018-11-02T03:02:30.147Z,33.00
2018-11-02T03:03:30.182Z,39.20
2018-11-02T03:04:30.203Z,27.70
2018-11-02T03:05:30.228Z,20.10
2018-11-02T03:06:30.253Z,21.30
2018-11-02T03:07:30.281Z,9.50
2018-11-02T03:08:30.308Z,7.90
2018-11-02T03:09:30.338Z,7.90
2018-11-02T03:10:30.446Z,5.10
2018-11-02T03:11:30.388Z,12.70
2018-11-02T03:12:30.414Z,8.70
2018-11-02T03:13:30.442Z,15.10
2018-11-02T03:14:30.471Z,20.20
2018-11-02T03:15:30.494Z,8.70
2018-11-02T03:16:30.523Z,21.40
2018-11-02T03:17:30.549Z,32.00
2018-11-02T03:18:30.700Z,46.20
2018-11-02T03:19:30.602Z,63.20
2018-11-02T03:20:30.628Z,77.00
2018-11-02T03:21:30.655Z,45.90
2018-11-02T03:22:30.787Z,15.20
2018-11-02T03:23:30.708Z,16.20
2018-11-02T03:24:30.734Z,16.50
2018-11-02T03:25:30.761Z,13.40
2018-11-02T03:26:30.789Z,13.30
2018-11-02T03:27:30.816Z,18.10
2018-11-02T03:28:30.841Z,15.30
2018-11-02T03:29:30.868Z,26.80
2018-11-02T03:30:30.894Z,11.50
2018-11-02T03:31:30.923Z,13.00
2018-11-02T03:32:30.951Z,18.10
2018-11-02T03:33:30.973Z,11.70
2018-11-02T03:34:31.001Z,26.10
2018-11-02T03:35:31.029Z,21.70
2018-11-02T03:36:31.053Z,14.80
2018-11-02T03:37:31.099Z,12.00
2018-11-02T03:38:31.108Z,8.30
2018-11-02T03:39:31.133Z,10.80
2018-11-02T03:40:31.159Z,8.20
2018-11-02T03:41:31.186Z,6.50
2018-11-02T03:42:31.215Z,8.00
2018-11-02T03:43:31.241Z,9.40
2018-11-02T03:44:31.265Z,6.00
2018-11-02T03:45:31.298Z,8.00
2018-11-02T03:46:31.322Z,6.20
2018-11-02T03:47:31.349Z,6.00
2018-11-02T03:48:31.373Z,7.60
2018-11-02T03:49:31.475Z,8.10
2018-11-02T03:50:31.433Z,5.50
2018-11-02T03:51:31.451Z,8.90
2018-11-02T03:52:31.477Z,17.10
2018-11-02T03:53:31.505Z,31.60
2018-11-02T03:54:31.532Z,12.90
2018-11-02T03:55:31.559Z,39.00
2018-11-02T03:56:31.591Z,24.40
2018-11-02T03:57:31.611Z,45.30
2018-11-02T03:58:31.638Z,82.00
2018-11-02T03:59:31.664Z,85.00
2018-11-02T04:00:31.745Z,98.60
2018-11-02T04:01:31.721Z,71.80
2018-11-02T04:02:31.743Z,35.80
2018-11-02T04:03:31.793Z,40.30
2018-11-02T04:04:31.797Z,29.10
2018-11-02T04:05:31.822Z,29.50
2018-11-02T04:06:31.851Z,22.60
2018-11-02T04:07:31.877Z,16.00
2018-11-02T04:08:31.902Z,15.60
2018-11-02T04:09:31.938Z,10.60
2018-11-02T04:10:31.955Z,11.50
2018-11-02T04:11:31.982Z,14.20
2018-11-02T04:12:32.010Z,13.90
2018-11-02T04:13:32.044Z,10.90
2018-11-02T04:14:32.060Z,30.20
2018-11-02T04:15:32.087Z,29.10
2018-11-02T04:16:32.113Z,11.40
2018-11-02T04:17:32.139Z,19.80
2018-11-02T04:19:32.195Z,17.20
2018-11-02T04:20:32.290Z,28.30
2018-11-02T04:21:33.057Z,33.90
2018-11-02T04:22:32.276Z,25.00
2018-11-02T04:23:32.298Z,15.00
2018-11-02T04:24:32.323Z,9.10
2018-11-02T04:25:32.354Z,17.70
2018-11-02T04:26:32.378Z,12.50
2018-11-02T04:27:32.407Z,12.90
2018-11-02T04:28:32.429Z,10.00
2018-11-02T04:29:32.461Z,11.20
2018-11-02T04:30:32.482Z,15.00
2018-11-02T04:31:32.510Z,10.50
2018-11-02T04:32:32.536Z,23.40
2018-11-02T04:33:32.563Z,9.50
2018-11-02T04:34:32.589Z,16.90
2018-11-02T04:36:32.640Z,18.00
2018-11-02T04:37:32.667Z,10.20
2018-11-02T04:38:32.694Z,13.00
2018-11-02T04:39:32.719Z,9.40
2018-11-02T04:40:32.984Z,11.10
2018-11-02T04:41:32.771Z,6.20
2018-11-02T04:42:32.798Z,6.40
2018-11-02T04:43:32.828Z,11.40
2018-11-02T04:44:32.852Z,7.60
2018-11-02T04:45:32.894Z,8.00
2018-11-02T04:46:32.908Z,9.90
2018-11-02T04:47:32.931Z,13.10
2018-11-02T04:48:32.956Z,13.90
2018-11-02T04:49:32.982Z,16.40
2018-11-02T04:50:33.009Z,14.60
2018-11-02T04:51:33.035Z,17.20
2018-11-02T04:52:33.062Z,18.20
2018-11-02T04:53:33.089Z,22.20
2018-11-02T04:54:33.115Z,21.90
2018-11-02T04:55:33.141Z,19.60
2018-11-02T04:56:33.165Z,9.10
2018-11-02T04:57:33.193Z,8.50
2018-11-02T04:58:33.220Z,13.20
2018-11-02T04:59:33.245Z,10.20
2018-11-02T05:00:33.271Z,11.40
2018-11-02T05:01:33.298Z,8.90
2018-11-02T05:02:33.323Z,13.20
2018-11-02T05:03:33.350Z,8.00
2018-11-02T05:04:33.383Z,16.20
2018-11-02T05:05:33.401Z,19.20
2018-11-02T05:06:33.435Z,18.30
2018-11-02T05:07:33.454Z,18.00
2018-11-02T05:08:33.479Z,28.00
2018-11-02T05:09:33.549Z,21.00
2018-11-02T05:10:33.533Z,19.80
2018-11-02T05:11:33.656Z,25.10
2018-11-02T05:12:33.586Z,22.90
2018-11-02T05:13:33.613Z,22.00
2018-11-02T05:14:33.638Z,23.70
2018-11-02T05:15:33.664Z,29.80
2018-11-02T05:16:33.700Z,20.80
2018-11-02T05:17:33.717Z,19.70
2018-11-02T05:18:33.746Z,14.60
2018-11-02T05:19:33.784Z,30.90
2018-11-02T05:20:33.796Z,32.00
2018-11-02T05:21:33.825Z,32.30
2018-11-02T05:22:33.850Z,28.50
2018-11-02T05:23:33.876Z,32.00
2018-11-02T05:24:33.901Z,65.60
2018-11-02T05:25:33.930Z,64.20
2018-11-02T05:26:33.955Z,43.00
2018-11-02T05:27:33.981Z,39.20
2018-11-02T05:28:34.007Z,40.20
2018-11-02T05:29:34.037Z,35.40
2018-11-02T05:30:34.060Z,21.50
2018-11-02T05:31:34.087Z,22.30
2018-11-02T05:32:34.112Z,23.00
2018-11-02T05:33:34.140Z,16.30
2018-11-02T05:34:34.166Z,36.80
2018-11-02T05:35:34.192Z,36.20
2018-11-02T05:36:34.218Z,41.90
2018-11-02T05:37:34.246Z,50.00
2018-11-02T05:38:34.271Z,37.40
2018-11-02T05:39:34.379Z,28.80
2018-11-02T05:40:34.324Z,27.40
2018-11-02T05:41:34.351Z,35.30
2018-11-02T05:42:34.378Z,32.60
2018-11-02T05:43:34.404Z,44.50
2018-11-02T05:44:34.429Z,46.70
2018-11-02T05:45:34.456Z,49.40
2018-11-02T05:46:34.482Z,18.50
2018-11-02T05:47:34.511Z,34.10
2018-11-02T05:48:34.536Z,36.70
2018-11-02T05:49:34.562Z,46.80
2018-11-02T05:50:34.588Z,50.10
2018-11-02T05:51:34.614Z,37.60
2018-11-02T05:52:34.640Z,33.40
2018-11-02T05:53:34.667Z,48.30
2018-11-02T05:54:34.694Z,29.00
2018-11-02T05:55:34.720Z,20.70
2018-11-02T05:56:34.745Z,26.10
2018-11-02T05:57:34.798Z,34.80
2018-11-02T05:58:34.799Z,41.10
2018-11-02T05:59:34.825Z,51.40
2018-11-02T06:00:34.852Z,44.10
2018-11-02T06:01:35.003Z,38.70
2018-11-02T06:02:34.904Z,151.70
2018-11-02T06:03:34.930Z,43.10
2018-11-02T06:04:34.981Z,29.10
2018-11-02T06:05:34.984Z,37.30
2018-11-02T06:06:35.009Z,37.80
2018-11-02T06:07:35.131Z,39.40
2018-11-02T06:08:35.062Z,30.00
2018-11-02T06:09:35.089Z,33.50
2018-11-02T06:10:35.114Z,28.60
2018-11-02T06:11:35.142Z,46.80
2018-11-02T06:12:35.167Z,42.00
2018-11-02T06:13:35.198Z,43.30
2018-11-02T06:14:35.221Z,42.20
2018-11-02T06:15:35.247Z,39.30
2018-11-02T06:16:35.318Z,49.30
2018-11-02T06:17:35.297Z,41.90
2018-11-02T06:18:35.325Z,43.30
2018-11-02T06:19:35.354Z,34.40
2018-11-02T06:20:35.381Z,40.80
2018-11-02T06:21:35.405Z,44.80
2018-11-02T06:22:36.032Z,44.20
2018-11-02T06:23:35.457Z,46.20
2018-11-02T06:24:35.484Z,50.90
2018-11-02T06:25:35.511Z,56.40
2018-11-02T06:26:35.536Z,49.90
2018-11-02T06:27:35.563Z,39.70
2018-11-02T06:28:35.593Z,55.70
2018-11-02T06:29:35.616Z,50.50
2018-11-02T06:30:35.733Z,48.50
2018-11-02T06:31:35.686Z,36.80
2018-11-02T06:32:35.704Z,36.50
2018-11-02T06:33:35.722Z,48.10
2018-11-02T06:34:35.751Z,23.80
2018-11-02T06:35:37.178Z,32.20
2018-11-02T06:36:35.834Z,23.30
2018-11-02T06:37:35.827Z,9.60
2018-11-02T06:38:35.857Z,16.60
2018-11-02T06:39:35.880Z,13.90
2018-11-02T06:40:38.460Z,20.10
2018-11-02T06:41:35.953Z,22.60
2018-11-02T06:42:35.959Z,20.20
2018-11-02T06:43:35.984Z,19.80
2018-11-02T06:44:36.018Z,29.00
2018-11-02T06:45:36.036Z,32.90
2018-11-02T06:46:36.062Z,22.30
2018-11-02T06:47:36.090Z,19.50
2018-11-02T06:48:36.115Z,18.40
2018-11-02T06:49:36.141Z,29.60
2018-11-02T06:50:36.167Z,44.30
2018-11-02T06:51:36.194Z,31.30
2018-11-02T06:52:36.221Z,47.70
2018-11-02T06:53:36.247Z,54.50
2018-11-02T06:54:36.275Z,63.50
2018-11-02T06:55:36.300Z,62.10
2018-11-02T06:56:36.326Z,74.50
2018-11-02T06:57:36.355Z,46.30
2018-11-02T06:58:36.382Z,31.80
2018-11-02T06:59:36.608Z,12.60
2018-11-02T07:00:36.489Z,11.10
2018-11-02T07:01:36.460Z,9.80
2018-11-02T07:02:36.495Z,12.40
2018-11-02T07:03:36.566Z,9.50
2018-11-02T07:04:36.556Z,16.40
2018-11-02T07:05:36.641Z,17.70
2018-11-02T07:06:36.697Z,32.30
2018-11-02T07:07:36.754Z,22.00
2018-11-02T07:08:36.756Z,18.80
2018-11-02T07:09:36.704Z,25.90
2018-11-02T07:10:36.779Z,36.50
2018-11-02T07:11:36.757Z,17.70
2018-11-02T07:12:36.748Z,19.60
2018-11-02T07:13:36.775Z,22.70
2018-11-02T07:14:36.802Z,13.00
2018-11-02T07:15:36.830Z,10.70
2018-11-02T07:16:36.855Z,13.60
2018-11-02T07:17:36.884Z,15.80
2018-11-02T07:18:36.909Z,12.20
2018-11-02T07:19:36.936Z,11.40
2018-11-02T07:20:36.961Z,11.40
2018-11-02T07:21:36.988Z,10.00
2018-11-02T07:22:37.013Z,11.30
2018-11-02T07:23:37.040Z,12.60
2018-11-02T07:24:37.067Z,12.10
2018-11-02T07:25:37.093Z,10.00
2018-11-02T07:26:37.121Z,9.70
2018-11-02T07:27:37.148Z,8.50
2018-11-02T07:28:37.173Z,10.80
2018-11-02T07:29:37.203Z,10.00
2018-11-02T07:30:37.228Z,8.80
2018-11-02T07:31:37.253Z,12.20
2018-11-02T07:32:37.280Z,10.50
2018-11-02T07:33:37.306Z,10.60
2018-11-02T07:34:37.334Z,12.80
2018-11-02T07:35:37.361Z,9.20
2018-11-02T07:36:37.447Z,14.30
2018-11-02T07:37:37.427Z,12.40
2018-11-02T07:38:37.440Z,12.90
2018-11-02T07:39:37.467Z,12.30
2018-11-02T07:40:37.534Z,22.10
2018-11-02T07:41:37.526Z,17.30
2018-11-02T07:42:37.548Z,31.60
2018-11-02T07:43:37.576Z,29.10
2018-11-02T07:44:37.602Z,16.70
2018-11-02T07:45:37.629Z,11.40
2018-11-02T07:46:37.693Z,13.10
2018-11-02T07:47:37.750Z,14.80
2018-11-02T07:48:37.715Z,16.30
2018-11-02T07:49:37.819Z,12.60
2018-11-02T07:50:37.767Z,11.60
2018-11-02T07:51:37.795Z,10.10
2018-11-02T07:52:37.823Z,13.80
2018-11-02T07:53:37.854Z,7.70
2018-11-02T07:54:37.880Z,9.00
2018-11-02T07:55:37.936Z,7.80
2018-11-02T07:56:37.936Z,8.80
2018-11-02T07:57:37.967Z,7.90
2018-11-02T07:58:37.994Z,7.70
2018-11-02T07:59:38.025Z,7.00
2018-11-02T08:00:38.054Z,5.70
2018-11-02T08:01:38.104Z,5.20
2018-11-02T08:02:38.163Z,5.50
2018-11-02T08:03:38.142Z,6.60
2018-11-02T08:04:38.176Z,5.50
2018-11-02T08:05:38.206Z,7.20
2018-11-02T08:06:38.233Z,8.30
2018-11-02T08:07:38.263Z,8.80
2018-11-02T08:08:38.293Z,7.30
2018-11-02T08:09:38.324Z,7.10
2018-11-02T08:10:38.405Z,9.70
2018-11-02T08:11:38.460Z,13.90
2018-11-02T08:12:38.418Z,9.00
2018-11-02T08:13:38.451Z,9.30
2018-11-02T08:14:38.481Z,8.40
2018-11-02T08:15:38.513Z,8.40
2018-11-02T08:16:38.545Z,13.60
2018-11-02T08:17:38.642Z,7.90
2018-11-02T08:18:38.611Z,7.00
2018-11-02T08:19:38.642Z,7.30
2018-11-02T08:20:38.675Z,7.20
2018-11-02T08:21:38.708Z,7.60
2018-11-02T08:22:38.741Z,6.30
2018-11-02T08:23:38.777Z,5.60
2018-11-02T08:24:38.861Z,5.20
2018-11-02T08:25:38.840Z,5.50
2018-11-02T08:26:38.876Z,5.70
2018-11-02T08:27:38.941Z,5.30
2018-11-02T08:28:38.942Z,5.80
2018-11-02T08:29:38.976Z,5.60
2018-11-02T08:30:39.057Z,5.60
2018-11-02T08:31:39.047Z,5.50
2018-11-02T08:32:39.096Z,6.90
2018-11-02T08:33:39.115Z,5.20
2018-11-02T08:34:39.151Z,4.50
2018-11-02T08:35:39.217Z,5.30
2018-11-02T08:36:39.308Z,5.40
2018-11-02T08:37:39.258Z,4.60
2018-11-02T08:38:39.292Z,4.10
2018-11-02T08:39:39.327Z,4.70
2018-11-02T08:40:39.361Z,4.30
2018-11-02T08:41:39.399Z,4.40
2018-11-02T08:42:39.434Z,4.50
2018-11-02T08:43:39.470Z,4.80
2018-11-02T08:44:39.506Z,6.10
2018-11-02T08:45:39.544Z,5.40
2018-11-02T08:46:39.709Z,4.60
2018-11-02T08:47:39.629Z,6.80
2018-11-02T08:48:39.652Z,4.70
2018-11-02T08:49:39.691Z,4.10
2018-11-02T08:50:39.727Z,3.90
2018-11-02T08:51:39.764Z,3.30
2018-11-02T08:52:39.802Z,3.40
2018-11-02T08:53:39.842Z,3.00
2018-11-02T08:54:39.910Z,3.30
2018-11-02T08:55:39.914Z,4.10
2018-11-02T08:56:39.952Z,3.00
2018-11-02T08:57:40.147Z,4.70
2018-11-02T08:58:40.290Z,5.50
2018-11-02T08:59:40.457Z,3.70
2018-11-02T09:00:40.104Z,3.80
2018-11-02T09:01:40.141Z,3.70
2018-11-02T09:02:40.183Z,3.70
2018-11-02T09:03:40.221Z,4.10
2018-11-02T09:04:40.277Z,4.30
2018-11-02T09:05:40.296Z,4.30
2018-11-02T09:06:40.334Z,4.00
2018-11-02T09:07:40.369Z,5.80
2018-11-02T09:08:40.429Z,4.30
2018-11-02T09:09:40.463Z,4.50
2018-11-02T09:10:40.484Z,4.70
2018-11-02T09:11:40.522Z,6.10
2018-11-02T09:12:40.558Z,4.60
2018-11-02T09:13:40.597Z,5.10
2018-11-02T09:14:40.639Z,4.40
2018-11-02T09:15:40.676Z,4.30
2018-11-02T09:16:40.725Z,6.40
2018-11-02T09:17:40.776Z,4.10
2018-11-02T09:18:40.811Z,4.60
2018-11-02T09:19:40.850Z,3.90
2018-11-02T09:20:40.886Z,3.60
2018-11-02T09:21:40.924Z,3.60
2018-11-02T09:22:40.968Z,3.20
2018-11-02T09:23:41.003Z,3.80
2018-11-02T09:24:41.029Z,3.90
2018-11-02T09:25:41.070Z,3.20
2018-11-02T09:26:41.110Z,3.40
2018-11-02T09:27:41.203Z,2.60
2018-11-02T09:28:41.190Z,3.40
2018-11-02T09:29:41.231Z,7.70
2018-11-02T09:30:41.273Z,3.30
2018-11-02T09:31:41.315Z,3.40
2018-11-02T09:32:41.355Z,2.80
2018-11-02T09:33:41.394Z,3.80
2018-11-02T09:34:41.459Z,3.70
2018-11-02T09:35:41.477Z,4.30
2018-11-02T09:36:41.544Z,2.70
2018-11-02T09:37:41.561Z,2.80
2018-11-02T09:38:41.602Z,3.30
2018-11-02T09:39:41.644Z,3.00
2018-11-02T09:40:41.685Z,2.80
2018-11-02T09:41:44.351Z,3.60
2018-11-02T09:42:41.802Z,3.40
2018-11-02T09:43:41.812Z,3.40
2018-11-02T09:44:41.855Z,3.80
2018-11-02T09:45:41.899Z,3.30
2018-11-02T09:46:41.940Z,3.10
2018-11-02T09:47:41.983Z,3.80
2018-11-02T09:48:42.024Z,3.50
2018-11-02T09:49:42.067Z,3.10
2018-11-02T09:50:42.110Z,2.90
2018-11-02T09:51:42.328Z,3.00
2018-11-02T09:52:42.195Z,3.50
2018-11-02T09:53:42.240Z,2.70
2018-11-02T09:54:42.283Z,2.90
2018-11-02T09:55:42.327Z,3.10
2018-11-02T09:56:42.369Z,3.30
2018-11-02T09:57:42.526Z,3.90
2018-11-02T09:58:42.456Z,2.80
2018-11-02T09:59:42.499Z,2.80
2018-11-02T10:00:42.542Z,3.10
2018-11-02T10:01:42.586Z,2.90
2018-11-02T10:02:42.630Z,2.60
2018-11-02T10:03:42.674Z,3.20
2018-11-02T10:04:42.715Z,3.00
2018-11-02T10:05:42.761Z,4.40
2018-11-02T10:06:42.805Z,2.70
2018-11-02T10:07:42.846Z,2.30
2018-11-02T10:08:42.890Z,2.50
2018-11-02T10:09:42.934Z,2.20
2018-11-02T10:10:42.980Z,4.10
2018-11-02T10:11:43.023Z,3.40
2018-11-02T10:12:43.066Z,2.50
2018-11-02T10:13:43.112Z,1.90
2018-11-02T10:14:43.157Z,4.40
2018-11-02T10:15:43.199Z,1.90
2018-11-02T10:16:43.243Z,2.50
2018-11-02T10:17:43.289Z,1.90
2018-11-02T10:18:43.334Z,2.20
2018-11-02T10:19:43.378Z,2.70
2018-11-02T10:20:43.421Z,2.20
2018-11-02T10:21:43.469Z,4.80
2018-11-02T10:22:43.512Z,3.40
2018-11-02T10:23:43.600Z,1.70
2018-11-02T10:24:43.602Z,1.60
2018-11-02T10:25:43.648Z,2.00
2018-11-02T10:26:43.694Z,3.20
2018-11-02T10:27:43.737Z,1.60
2018-11-02T10:28:43.782Z,2.90
2018-11-02T10:29:43.827Z,1.40
2018-11-02T10:30:43.874Z,2.10
2018-11-02T10:31:43.919Z,1.50
2018-11-02T10:32:43.965Z,1.60
2018-11-02T10:33:44.011Z,2.90
2018-11-02T10:34:44.055Z,1.40
2018-11-02T10:35:44.120Z,3.60
2018-11-02T10:36:44.146Z,1.70
2018-11-02T10:37:44.195Z,1.30
2018-11-02T10:38:44.242Z,1.30
2018-11-02T10:39:44.461Z,2.30
2018-11-02T10:40:44.329Z,1.80
2018-11-02T10:41:44.377Z,1.00
2018-11-02T10:42:44.423Z,1.60
2018-11-02T10:43:44.471Z,1.00
2018-11-02T10:44:44.764Z,1.30
2018-11-02T10:45:44.563Z,1.20
2018-11-02T10:46:44.609Z,1.10
2018-11-02T10:47:44.987Z,0.90
2018-11-02T10:48:44.704Z,1.80
2018-11-02T10:49:44.749Z,1.20
2018-11-02T10:50:44.795Z,1.10
2018-11-02T10:51:44.843Z,2.60
2018-11-02T10:52:44.889Z,2.40
2018-11-02T10:53:44.937Z,1.20
2018-11-02T10:54:45.194Z,1.00
2018-11-02T10:55:45.032Z,1.00
2018-11-02T10:56:45.225Z,1.00
2018-11-02T10:57:45.183Z,2.30
2018-11-02T10:58:45.176Z,1.00
2018-11-02T10:59:45.221Z,1.70
2018-11-02T11:00:45.355Z,2.30
2018-11-02T11:01:45.314Z,1.00
2018-11-02T11:02:45.363Z,1.30
2018-11-02T11:03:45.429Z,1.30
2018-11-02T11:04:45.456Z,1.00
2018-11-02T11:05:45.502Z,2.40
2018-11-02T11:06:45.551Z,2.00
2018-11-02T11:07:45.596Z,1.20
2018-11-02T11:08:45.643Z,1.00
2018-11-02T11:09:45.690Z,1.00
2018-11-02T11:10:45.738Z,1.10
2018-11-02T11:11:45.894Z,1.20
2018-11-02T11:12:46.240Z,1.20
2018-11-02T11:13:46.289Z,1.90
2018-11-02T11:14:45.921Z,1.20
2018-11-02T11:15:45.991Z,2.80
2018-11-02T11:16:46.009Z,1.60
2018-11-02T11:17:46.055Z,1.40
2018-11-02T11:18:46.099Z,1.20
2018-11-02T11:19:46.144Z,2.60
2018-11-02T11:20:46.184Z,2.00
2018-11-02T11:21:46.229Z,1.30
2018-11-02T11:22:46.271Z,1.20
2018-11-02T11:23:46.315Z,1.30
2018-11-02T11:24:46.354Z,2.30
2018-11-02T11:25:46.397Z,1.10
2018-11-02T11:26:46.439Z,1.30
2018-11-02T11:27:46.481Z,1.60
2018-11-02T11:28:46.527Z,1.10
2018-11-02T11:29:46.564Z,2.50
2018-11-02T11:30:46.607Z,2.70
2018-11-02T11:31:46.650Z,1.40
2018-11-02T11:32:46.688Z,1.30
2018-11-02T11:33:46.730Z,1.70
2018-11-02T11:34:46.769Z,1.20
2018-11-02T11:35:46.811Z,1.70
2018-11-02T11:36:46.853Z,2.00
2018-11-02T11:37:46.897Z,1.70
2018-11-02T11:38:46.931Z,1.40
2018-11-02T11:40:47.012Z,1.10
2018-11-02T11:41:47.052Z,1.30
2018-11-02T11:42:47.100Z,1.60
2018-11-02T11:43:47.132Z,1.60
2018-11-02T11:44:47.195Z,2.00
2018-11-02T11:45:47.212Z,1.70
2018-11-02T11:46:47.250Z,1.40
2018-11-02T11:47:47.292Z,2.10
2018-11-02T11:48:47.509Z,2.80
2018-11-02T11:49:47.371Z,2.90
2018-11-02T11:50:47.416Z,1.60
2018-11-02T11:51:47.451Z,1.30
2018-11-02T11:52:47.491Z,5.30
2018-11-02T11:53:47.530Z,2.40
2018-11-02T11:54:47.571Z,2.00
2018-11-02T11:55:47.612Z,1.20
2018-11-02T11:56:47.650Z,1.60
2018-11-02T11:57:47.690Z,1.40
2018-11-02T11:58:47.729Z,1.20
2018-11-02T11:59:47.776Z,2.20
2018-11-02T12:00:47.809Z,1.30
2018-11-02T12:01:47.851Z,1.80
2018-11-02T12:02:48.418Z,1.50
2018-11-02T12:03:47.929Z,3.40
2018-11-02T12:04:48.019Z,1.30
2018-11-02T12:05:48.006Z,2.00
2018-11-02T12:06:48.046Z,1.50
2018-11-02T12:07:48.086Z,1.70
2018-11-02T12:08:48.123Z,1.40
2018-11-02T12:09:48.364Z,1.40
2018-11-02T12:10:48.203Z,1.20
2018-11-02T12:11:48.244Z,1.70
2018-11-02T12:12:48.280Z,1.30
2018-11-02T12:13:48.319Z,1.10
2018-11-02T12:14:48.358Z,1.30
2018-11-02T12:15:48.465Z,1.40
2018-11-02T12:16:48.437Z,1.30
2018-11-02T12:17:48.475Z,1.80
2018-11-02T12:18:48.515Z,1.10
2018-11-02T12:19:48.555Z,1.30
2018-11-02T12:20:48.593Z,1.30
2018-11-02T12:21:48.685Z,1.50
2018-11-02T12:22:48.669Z,1.30
2018-11-02T12:23:48.708Z,1.90
2018-11-02T12:24:48.745Z,1.00
2018-11-02T12:25:48.782Z,1.90
2018-11-02T12:26:48.821Z,2.60
2018-11-02T12:27:48.859Z,1.30
2018-11-02T12:28:48.980Z,2.10
2018-11-02T12:29:48.934Z,1.20
2018-11-02T12:30:48.976Z,1.20
2018-11-02T12:31:49.010Z,1.70
2018-11-02T12:32:49.047Z,1.40
2018-11-02T12:33:49.083Z,3.10
2018-11-02T12:34:49.120Z,2.80
2018-11-02T12:35:49.159Z,1.20
2018-11-02T12:36:49.231Z,1.20
2018-11-02T12:37:49.231Z,1.20
2018-11-02T12:38:49.268Z,1.90
2018-11-02T12:39:49.305Z,1.20
2018-11-02T12:40:49.353Z,1.10
2018-11-02T12:41:49.378Z,1.10
2018-11-02T12:42:49.468Z,1.90
2018-11-02T12:43:49.537Z,0.90
2018-11-02T12:44:49.486Z,5.70
2018-11-02T12:45:49.523Z,2.90
2018-11-02T12:46:49.560Z,1.80
2018-11-02T12:47:49.627Z,2.30
2018-11-02T12:48:49.854Z,2.30
2018-11-02T12:49:50.053Z,1.30
2018-11-02T12:50:49.705Z,4.30
2018-11-02T12:51:49.742Z,1.30
2018-11-02T12:52:49.777Z,1.20
2018-11-02T12:53:49.814Z,3.70
2018-11-02T12:54:49.851Z,1.30
2018-11-02T12:55:49.887Z,1.40
2018-11-02T12:56:49.921Z,1.40
2018-11-02T12:57:49.957Z,1.70
2018-11-02T12:58:49.993Z,2.90
2018-11-02T12:59:51.232Z,2.60
2018-11-02T13:00:50.064Z,0.90
2018-11-02T13:01:50.100Z,1.40
2018-11-02T13:02:50.137Z,1.10
2018-11-02T13:03:50.174Z,1.80
2018-11-02T13:04:50.207Z,3.50
2018-11-02T13:05:50.445Z,1.30
2018-11-02T13:06:50.278Z,3.20
2018-11-02T13:07:50.316Z,1.20
2018-11-02T13:08:50.352Z,3.10
2018-11-02T13:09:50.385Z,2.30
2018-11-02T13:10:50.420Z,2.70